This is the latest recevied weather packets stored in our database for station/object N4OOJ-13. If no packets are shown the sender has not sent any weather packets the latest 10 day(s).
| Time | Temp. | Humidity | Pressure | Rain* | Wind** | Luminosity | Snow |
|---|---|---|---|---|---|---|---|
| 1778028019 | 18.89° C | 74% | 1017.8 hPa | 0 mm | - | - | - |
| 1778027426 | 19.44° C | 73% | 1017.9 hPa | 0 mm | - | - | - |
| 1778026825 | 20° C | 71% | 1017.9 hPa | 0 mm | - | - | - |
| 1778026226 | 20.56° C | 70% | 1017.9 hPa | 0 mm | - | - | - |
| 1778025620 | 21.11° C | 68% | 1017.9 hPa | 0 mm | - | - | - |
| 1778025020 | 21.67° C | 65% | 1017.9 hPa | 0 mm | - | - | - |
| 1778024427 | 22.22° C | 62% | 1017.9 hPa | 0 mm | - | - | - |
| 1778023820 | 23.33° C | 59% | 1017.5 hPa | 0 mm | - | - | - |
| 1778023221 | 25° C | 55% | 1017.6 hPa | 0 mm | - | - | - |
| 1778022621 | 25° C | 53% | 1017.5 hPa | 0 mm | - | - | - |
| 1778022020 | 25.56° C | 53% | 1017.5 hPa | 0 mm | - | - | - |
| 1778021432 | 25° C | 52% | 1017.6 hPa | 0 mm | - | - | - |
| 1778020828 | 26.11° C | 51% | 1017.6 hPa | 0 mm | - | - | - |
| 1778020232 | 26.11° C | 51% | 1017.5 hPa | 0 mm | - | - | - |
| 1778019628 | 26.67° C | 49% | 1017.5 hPa | 0 mm | - | - | - |
| 1778019028 | 26.67° C | 48% | 1017.7 hPa | 0 mm | - | - | - |
| 1778018429 | 26.11° C | 48% | 1017.6 hPa | 0 mm | - | - | - |
| 1778017824 | 26.11° C | 49% | 1017.5 hPa | 0 mm | - | - | - |
| 1778017219 | 26.67° C | 48% | 1017.7 hPa | 0 mm | - | - | - |
| 1778016642 | 26.11° C | 50% | 1017.6 hPa | 0 mm | - | - | - |
| 1778016026 | 26.67° C | 49% | 1017.7 hPa | 0 mm | - | - | - |
| 1778015416 | 26.67° C | 48% | 1017.7 hPa | 0 mm | - | - | - |
| 1778014833 | 27.78° C | 46% | 1017.7 hPa | 0 mm | - | - | - |
| 1778014234 | 27.78° C | 44% | 1017.5 hPa | 0 mm | - | - | - |
| 1778013633 | 27.22° C | 45% | 1017.6 hPa | 0 mm | - | - | - |
* Rain latest hour (hover to see other rain measurements)
** Current wind speed in m/s (hover to see current wind gust speed)